sensor_id;sensor_type;location;lat;lon;timestamp;temperature;humidity
5938;DHT22;2994;51.220;4.412;2023-07-24T00:01:42;21.53;78.34
5938;DHT22;2994;51.220;4.412;2023-07-24T00:04:07;21.52;78.43
5938;DHT22;2994;51.220;4.412;2023-07-24T00:06:32;21.50;78.44
5938;DHT22;2994;51.220;4.412;2023-07-24T00:08:58;21.51;78.37
5938;DHT22;2994;51.220;4.412;2023-07-24T00:11:24;21.49;78.43
5938;DHT22;2994;51.220;4.412;2023-07-24T00:13:49;21.50;78.58
5938;DHT22;2994;51.220;4.412;2023-07-24T00:16:14;21.48;78.73
5938;DHT22;2994;51.220;4.412;2023-07-24T00:18:40;21.48;78.72
5938;DHT22;2994;51.220;4.412;2023-07-24T00:21:06;21.47;78.86
5938;DHT22;2994;51.220;4.412;2023-07-24T00:23:31;21.46;78.82
5938;DHT22;2994;51.220;4.412;2023-07-24T00:25:57;21.46;78.80
5938;DHT22;2994;51.220;4.412;2023-07-24T00:28:22;21.45;78.89
5938;DHT22;2994;51.220;4.412;2023-07-24T00:30:48;21.43;78.95
5938;DHT22;2994;51.220;4.412;2023-07-24T00:33:13;21.40;78.91
5938;DHT22;2994;51.220;4.412;2023-07-24T00:35:38;21.40;78.85
5938;DHT22;2994;51.220;4.412;2023-07-24T00:38:04;21.39;78.95
5938;DHT22;2994;51.220;4.412;2023-07-24T00:40:29;21.37;79.09
5938;DHT22;2994;51.220;4.412;2023-07-24T00:42:55;21.37;79.14
5938;DHT22;2994;51.220;4.412;2023-07-24T00:45:21;21.32;79.37
5938;DHT22;2994;51.220;4.412;2023-07-24T00:47:47;21.33;79.25
5938;DHT22;2994;51.220;4.412;2023-07-24T00:50:13;21.36;79.13
5938;DHT22;2994;51.220;4.412;2023-07-24T00:52:39;21.35;79.17
5938;DHT22;2994;51.220;4.412;2023-07-24T00:55:05;21.35;79.09
5938;DHT22;2994;51.220;4.412;2023-07-24T00:57:32;21.36;79.08
5938;DHT22;2994;51.220;4.412;2023-07-24T00:59:57;21.35;79.04
5938;DHT22;2994;51.220;4.412;2023-07-24T01:02:23;21.36;79.04
5938;DHT22;2994;51.220;4.412;2023-07-24T01:04:48;21.39;78.91
5938;DHT22;2994;51.220;4.412;2023-07-24T01:07:14;21.39;78.82
5938;DHT22;2994;51.220;4.412;2023-07-24T01:09:41;21.38;78.73
5938;DHT22;2994;51.220;4.412;2023-07-24T01:12:15;21.39;78.70
5938;DHT22;2994;51.220;4.412;2023-07-24T01:14:55;21.40;78.71
5938;DHT22;2994;51.220;4.412;2023-07-24T01:17:24;21.40;78.63
5938;DHT22;2994;51.220;4.412;2023-07-24T01:19:55;21.42;78.62
5938;DHT22;2994;51.220;4.412;2023-07-24T01:25:11;21.37;78.64
5938;DHT22;2994;51.220;4.412;2023-07-24T01:27:44;21.37;78.59
5938;DHT22;2994;51.220;4.412;2023-07-24T01:30:10;21.38;78.67
5938;DHT22;2994;51.220;4.412;2023-07-24T01:32:37;21.36;78.67
5938;DHT22;2994;51.220;4.412;2023-07-24T01:35:03;21.32;78.95
5938;DHT22;2994;51.220;4.412;2023-07-24T01:37:29;21.32;79.05
5938;DHT22;2994;51.220;4.412;2023-07-24T01:39:56;21.29;79.27
5938;DHT22;2994;51.220;4.412;2023-07-24T01:42:22;21.29;79.14
5938;DHT22;2994;51.220;4.412;2023-07-24T01:44:55;21.25;79.35
5938;DHT22;2994;51.220;4.412;2023-07-24T01:47:21;21.22;79.52
5938;DHT22;2994;51.220;4.412;2023-07-24T01:49:46;21.22;79.51
5938;DHT22;2994;51.220;4.412;2023-07-24T01:52:12;21.21;79.66
5938;DHT22;2994;51.220;4.412;2023-07-24T01:54:38;21.18;79.65
5938;DHT22;2994;51.220;4.412;2023-07-24T01:57:03;21.15;79.49
5938;DHT22;2994;51.220;4.412;2023-07-24T01:59:29;21.09;79.51
5938;DHT22;2994;51.220;4.412;2023-07-24T02:01:54;21.10;79.27
5938;DHT22;2994;51.220;4.412;2023-07-24T02:04:20;21.08;79.01
5938;DHT22;2994;51.220;4.412;2023-07-24T02:06:48;21.07;78.96
5938;DHT22;2994;51.220;4.412;2023-07-24T02:09:14;21.08;78.85
5938;DHT22;2994;51.220;4.412;2023-07-24T02:11:40;21.07;78.75
5938;DHT22;2994;51.220;4.412;2023-07-24T02:14:05;21.05;78.61
5938;DHT22;2994;51.220;4.412;2023-07-24T02:16:30;21.02;78.66
5938;DHT22;2994;51.220;4.412;2023-07-24T02:18:56;20.98;78.72
5938;DHT22;2994;51.220;4.412;2023-07-24T02:21:21;20.98;78.55
5938;DHT22;2994;51.220;4.412;2023-07-24T02:23:47;20.96;78.44
5938;DHT22;2994;51.220;4.412;2023-07-24T02:26:12;20.95;78.30
5938;DHT22;2994;51.220;4.412;2023-07-24T02:28:38;20.92;78.05
5938;DHT22;2994;51.220;4.412;2023-07-24T02:31:03;20.83;78.46
5938;DHT22;2994;51.220;4.412;2023-07-24T02:33:28;20.85;78.27
5938;DHT22;2994;51.220;4.412;2023-07-24T02:35:54;20.85;77.98
5938;DHT22;2994;51.220;4.412;2023-07-24T02:38:19;20.83;77.98
5938;DHT22;2994;51.220;4.412;2023-07-24T02:40:45;20.84;77.92
5938;DHT22;2994;51.220;4.412;2023-07-24T02:43:10;20.79;77.88
5938;DHT22;2994;51.220;4.412;2023-07-24T02:45:37;20.80;77.88
5938;DHT22;2994;51.220;4.412;2023-07-24T02:48:02;20.76;78.02
5938;DHT22;2994;51.220;4.412;2023-07-24T02:50:28;20.76;78.00
5938;DHT22;2994;51.220;4.412;2023-07-24T02:52:53;20.78;78.09
5938;DHT22;2994;51.220;4.412;2023-07-24T02:55:19;20.76;78.05
5938;DHT22;2994;51.220;4.412;2023-07-24T02:57:45;20.76;78.08
5938;DHT22;2994;51.220;4.412;2023-07-24T03:00:10;20.74;78.26
5938;DHT22;2994;51.220;4.412;2023-07-24T03:02:36;20.76;78.18
5938;DHT22;2994;51.220;4.412;2023-07-24T03:05:02;20.74;78.40
5938;DHT22;2994;51.220;4.412;2023-07-24T03:07:28;20.75;78.29
5938;DHT22;2994;51.220;4.412;2023-07-24T03:09:53;20.75;78.24
5938;DHT22;2994;51.220;4.412;2023-07-24T03:12:18;20.74;78.06
5938;DHT22;2994;51.220;4.412;2023-07-24T03:14:44;20.68;77.93
5938;DHT22;2994;51.220;4.412;2023-07-24T03:17:09;20.57;78.44
5938;DHT22;2994;51.220;4.412;2023-07-24T03:19:35;20.53;78.65
5938;DHT22;2994;51.220;4.412;2023-07-24T03:22:00;20.53;79.08
5938;DHT22;2994;51.220;4.412;2023-07-24T03:24:25;20.54;79.00
5938;DHT22;2994;51.220;4.412;2023-07-24T03:26:51;20.50;78.95
5938;DHT22;2994;51.220;4.412;2023-07-24T03:29:16;20.44;79.24
5938;DHT22;2994;51.220;4.412;2023-07-24T03:31:42;20.37;78.88
5938;DHT22;2994;51.220;4.412;2023-07-24T03:34:07;20.28;78.85
5938;DHT22;2994;51.220;4.412;2023-07-24T03:36:32;19.89;79.61
5938;DHT22;2994;51.220;4.412;2023-07-24T03:38:59;19.83;79.98
5938;DHT22;2994;51.220;4.412;2023-07-24T03:41:24;19.82;79.68
5938;DHT22;2994;51.220;4.412;2023-07-24T03:43:50;19.75;79.43
5938;DHT22;2994;51.220;4.412;2023-07-24T03:46:15;19.71;79.58
5938;DHT22;2994;51.220;4.412;2023-07-24T03:48:41;19.77;79.15
5938;DHT22;2994;51.220;4.412;2023-07-24T03:51:06;19.79;79.24
5938;DHT22;2994;51.220;4.412;2023-07-24T03:53:32;19.77;79.16
5938;DHT22;2994;51.220;4.412;2023-07-24T03:55:57;19.81;78.88
5938;DHT22;2994;51.220;4.412;2023-07-24T03:58:23;19.85;78.84
5938;DHT22;2994;51.220;4.412;2023-07-24T04:00:48;19.85;78.46
5938;DHT22;2994;51.220;4.412;2023-07-24T04:03:14;19.89;78.52
5938;DHT22;2994;51.220;4.412;2023-07-24T04:05:39;19.90;78.48
5938;DHT22;2994;51.220;4.412;2023-07-24T04:08:05;19.94;78.45
5938;DHT22;2994;51.220;4.412;2023-07-24T04:10:30;19.95;78.30
5938;DHT22;2994;51.220;4.412;2023-07-24T04:12:56;19.94;78.24
5938;DHT22;2994;51.220;4.412;2023-07-24T04:15:22;19.97;78.06
5938;DHT22;2994;51.220;4.412;2023-07-24T04:17:48;20.01;77.90
5938;DHT22;2994;51.220;4.412;2023-07-24T04:20:13;19.98;77.69
5938;DHT22;2994;51.220;4.412;2023-07-24T04:22:38;20.02;77.42
5938;DHT22;2994;51.220;4.412;2023-07-24T04:25:05;20.01;77.22
5938;DHT22;2994;51.220;4.412;2023-07-24T04:27:30;20.01;77.16
5938;DHT22;2994;51.220;4.412;2023-07-24T04:29:56;20.01;77.21
5938;DHT22;2994;51.220;4.412;2023-07-24T04:32:21;20.01;77.21
5938;DHT22;2994;51.220;4.412;2023-07-24T04:34:46;20.02;77.06
5938;DHT22;2994;51.220;4.412;2023-07-24T04:37:12;20.01;77.14
5938;DHT22;2994;51.220;4.412;2023-07-24T04:39:40;19.99;77.21
5938;DHT22;2994;51.220;4.412;2023-07-24T04:42:06;20.02;77.01
5938;DHT22;2994;51.220;4.412;2023-07-24T04:44:31;20.03;77.01
5938;DHT22;2994;51.220;4.412;2023-07-24T04:46:57;20.02;77.00
5938;DHT22;2994;51.220;4.412;2023-07-24T04:49:23;20.03;76.94
5938;DHT22;2994;51.220;4.412;2023-07-24T04:51:50;20.00;76.91
5938;DHT22;2994;51.220;4.412;2023-07-24T04:54:16;20.03;76.63
5938;DHT22;2994;51.220;4.412;2023-07-24T04:56:41;20.00;76.54
5938;DHT22;2994;51.220;4.412;2023-07-24T04:59:06;19.96;76.69
5938;DHT22;2994;51.220;4.412;2023-07-24T05:01:32;19.99;76.54
5938;DHT22;2994;51.220;4.412;2023-07-24T05:03:57;20.02;76.26
5938;DHT22;2994;51.220;4.412;2023-07-24T05:06:23;20.03;76.32
5938;DHT22;2994;51.220;4.412;2023-07-24T05:08:48;20.03;76.29
5938;DHT22;2994;51.220;4.412;2023-07-24T05:11:14;20.06;76.24
5938;DHT22;2994;51.220;4.412;2023-07-24T05:13:39;20.05;76.28
5938;DHT22;2994;51.220;4.412;2023-07-24T05:16:08;20.05;76.24
5938;DHT22;2994;51.220;4.412;2023-07-24T05:18:33;20.03;76.31
5938;DHT22;2994;51.220;4.412;2023-07-24T05:20:59;20.02;76.39
5938;DHT22;2994;51.220;4.412;2023-07-24T05:23:24;20.03;76.38
5938;DHT22;2994;51.220;4.412;2023-07-24T05:26:00;19.96;76.70
5938;DHT22;2994;51.220;4.412;2023-07-24T05:28:29;19.99;76.53
5938;DHT22;2994;51.220;4.412;2023-07-24T05:30:55;19.99;76.53
5938;DHT22;2994;51.220;4.412;2023-07-24T05:33:20;19.99;76.61
5938;DHT22;2994;51.220;4.412;2023-07-24T05:35:46;20.00;76.62
5938;DHT22;2994;51.220;4.412;2023-07-24T05:38:11;19.99;76.66
5938;DHT22;2994;51.220;4.412;2023-07-24T05:40:37;19.97;76.82
5938;DHT22;2994;51.220;4.412;2023-07-24T05:43:02;19.97;76.89
5938;DHT22;2994;51.220;4.412;2023-07-24T05:45:29;19.98;77.05
5938;DHT22;2994;51.220;4.412;2023-07-24T05:47:54;19.95;77.19
5938;DHT22;2994;51.220;4.412;2023-07-24T05:50:20;19.94;77.30
5938;DHT22;2994;51.220;4.412;2023-07-24T05:52:45;19.92;77.22
5938;DHT22;2994;51.220;4.412;2023-07-24T05:55:11;19.92;77.32
5938;DHT22;2994;51.220;4.412;2023-07-24T05:57:36;19.92;77.37
5938;DHT22;2994;51.220;4.412;2023-07-24T06:00:04;19.92;77.51
5938;DHT22;2994;51.220;4.412;2023-07-24T06:02:29;19.96;77.66
5938;DHT22;2994;51.220;4.412;2023-07-24T06:04:55;20.01;77.63
5938;DHT22;2994;51.220;4.412;2023-07-24T06:07:20;20.00;77.71
5938;DHT22;2994;51.220;4.412;2023-07-24T06:09:46;20.02;77.63
5938;DHT22;2994;51.220;4.412;2023-07-24T06:12:11;20.03;77.63
5938;DHT22;2994;51.220;4.412;2023-07-24T06:14:36;20.04;77.57
5938;DHT22;2994;51.220;4.412;2023-07-24T06:17:02;20.06;77.56
5938;DHT22;2994;51.220;4.412;2023-07-24T06:19:27;20.07;77.56
5938;DHT22;2994;51.220;4.412;2023-07-24T06:21:53;20.09;77.63
5938;DHT22;2994;51.220;4.412;2023-07-24T06:24:18;20.13;77.51
5938;DHT22;2994;51.220;4.412;2023-07-24T06:26:44;20.18;77.49
5938;DHT22;2994;51.220;4.412;2023-07-24T06:29:09;20.21;77.50
5938;DHT22;2994;51.220;4.412;2023-07-24T06:31:35;20.24;77.61
5938;DHT22;2994;51.220;4.412;2023-07-24T06:34:00;20.21;77.66
5938;DHT22;2994;51.220;4.412;2023-07-24T06:36:25;20.29;77.61
5938;DHT22;2994;51.220;4.412;2023-07-24T06:38:51;20.36;77.53
5938;DHT22;2994;51.220;4.412;2023-07-24T06:41:17;20.39;77.62
5938;DHT22;2994;51.220;4.412;2023-07-24T06:43:42;20.47;77.45
5938;DHT22;2994;51.220;4.412;2023-07-24T06:46:08;20.54;77.37
5938;DHT22;2994;51.220;4.412;2023-07-24T06:48:33;20.55;77.44
5938;DHT22;2994;51.220;4.412;2023-07-24T06:50:59;20.60;77.27
5938;DHT22;2994;51.220;4.412;2023-07-24T06:53:24;20.64;77.18
5938;DHT22;2994;51.220;4.412;2023-07-24T06:55:49;20.54;77.37
5938;DHT22;2994;51.220;4.412;2023-07-24T06:58:15;20.55;77.23
5938;DHT22;2994;51.220;4.412;2023-07-24T07:00:40;20.50;77.38
5938;DHT22;2994;51.220;4.412;2023-07-24T07:03:06;20.53;77.19
5938;DHT22;2994;51.220;4.412;2023-07-24T07:05:32;20.51;77.24
5938;DHT22;2994;51.220;4.412;2023-07-24T07:07:57;20.59;77.02
5938;DHT22;2994;51.220;4.412;2023-07-24T07:10:22;20.61;77.08
5938;DHT22;2994;51.220;4.412;2023-07-24T07:12:48;20.56;77.20
5938;DHT22;2994;51.220;4.412;2023-07-24T07:15:14;20.45;77.59
5938;DHT22;2994;51.220;4.412;2023-07-24T07:17:39;20.53;77.40
5938;DHT22;2994;51.220;4.412;2023-07-24T07:20:05;20.35;78.14
5938;DHT22;2994;51.220;4.412;2023-07-24T07:22:31;20.49;77.70
5938;DHT22;2994;51.220;4.412;2023-07-24T07:24:56;20.49;77.87
5938;DHT22;2994;51.220;4.412;2023-07-24T07:27:22;20.46;78.14
5938;DHT22;2994;51.220;4.412;2023-07-24T07:29:47;20.46;78.18
5938;DHT22;2994;51.220;4.412;2023-07-24T07:32:13;20.41;78.40
5938;DHT22;2994;51.220;4.412;2023-07-24T07:34:38;20.35;78.69
5938;DHT22;2994;51.220;4.412;2023-07-24T07:37:05;20.37;78.50
5938;DHT22;2994;51.220;4.412;2023-07-24T07:39:31;20.37;78.57
5938;DHT22;2994;51.220;4.412;2023-07-24T07:41:56;20.31;78.96
5938;DHT22;2994;51.220;4.412;2023-07-24T07:44:22;20.30;78.82
5938;DHT22;2994;51.220;4.412;2023-07-24T07:46:47;20.29;78.77
5938;DHT22;2994;51.220;4.412;2023-07-24T07:49:13;20.33;78.67
5938;DHT22;2994;51.220;4.412;2023-07-24T07:51:38;20.34;78.35
5938;DHT22;2994;51.220;4.412;2023-07-24T07:54:04;20.35;77.85
5938;DHT22;2994;51.220;4.412;2023-07-24T07:56:29;20.32;77.89
5938;DHT22;2994;51.220;4.412;2023-07-24T07:58:55;20.27;77.89
5938;DHT22;2994;51.220;4.412;2023-07-24T08:01:20;20.33;77.49
5938;DHT22;2994;51.220;4.412;2023-07-24T08:03:45;20.39;77.50
5938;DHT22;2994;51.220;4.412;2023-07-24T08:06:11;20.40;77.41
5938;DHT22;2994;51.220;4.412;2023-07-24T08:08:37;20.44;77.31
5938;DHT22;2994;51.220;4.412;2023-07-24T08:11:06;20.46;77.21
5938;DHT22;2994;51.220;4.412;2023-07-24T08:13:32;20.53;77.18
5938;DHT22;2994;51.220;4.412;2023-07-24T08:15:58;20.64;77.28
5938;DHT22;2994;51.220;4.412;2023-07-24T08:18:25;20.68;77.21
5938;DHT22;2994;51.220;4.412;2023-07-24T08:20:50;20.74;77.05
5938;DHT22;2994;51.220;4.412;2023-07-24T08:23:16;20.77;76.92
5938;DHT22;2994;51.220;4.412;2023-07-24T08:25:53;20.83;77.01
5938;DHT22;2994;51.220;4.412;2023-07-24T08:28:19;20.87;77.04
5938;DHT22;2994;51.220;4.412;2023-07-24T08:30:45;20.92;77.01
5938;DHT22;2994;51.220;4.412;2023-07-24T08:33:12;20.88;76.79
5938;DHT22;2994;51.220;4.412;2023-07-24T08:35:37;20.83;76.72
5938;DHT22;2994;51.220;4.412;2023-07-24T08:38:03;20.83;76.76
5938;DHT22;2994;51.220;4.412;2023-07-24T08:40:28;20.75;76.98
5938;DHT22;2994;51.220;4.412;2023-07-24T08:42:54;20.80;76.93
5938;DHT22;2994;51.220;4.412;2023-07-24T08:45:20;20.80;75.69
5938;DHT22;2994;51.220;4.412;2023-07-24T08:47:45;20.80;75.99
5938;DHT22;2994;51.220;4.412;2023-07-24T08:50:12;20.87;75.72
5938;DHT22;2994;51.220;4.412;2023-07-24T08:52:39;20.94;75.63
5938;DHT22;2994;51.220;4.412;2023-07-24T08:55:05;20.93;74.54
5938;DHT22;2994;51.220;4.412;2023-07-24T08:57:31;20.93;74.86
5938;DHT22;2994;51.220;4.412;2023-07-24T08:59:56;20.95;74.93
5938;DHT22;2994;51.220;4.412;2023-07-24T09:02:23;20.87;73.87
5938;DHT22;2994;51.220;4.412;2023-07-24T09:04:49;20.78;74.08
5938;DHT22;2994;51.220;4.412;2023-07-24T09:07:14;20.85;73.87
5938;DHT22;2994;51.220;4.412;2023-07-24T09:09:40;20.87;74.12
5938;DHT22;2994;51.220;4.412;2023-07-24T09:12:05;21.02;74.31
5938;DHT22;2994;51.220;4.412;2023-07-24T09:14:31;21.13;74.08
5938;DHT22;2994;51.220;4.412;2023-07-24T09:17:07;21.20;73.93
5938;DHT22;2994;51.220;4.412;2023-07-24T09:19:33;21.29;72.58
5938;DHT22;2994;51.220;4.412;2023-07-24T09:22:12;21.25;72.00
5938;DHT22;2994;51.220;4.412;2023-07-24T09:24:52;21.17;72.26
5938;DHT22;2994;51.220;4.412;2023-07-24T09:27:18;21.23;72.55
5938;DHT22;2994;51.220;4.412;2023-07-24T09:29:43;21.27;72.30
5938;DHT22;2994;51.220;4.412;2023-07-24T09:34:47;21.37;71.71
5938;DHT22;2994;51.220;4.412;2023-07-24T09:37:25;21.38;71.79
5938;DHT22;2994;51.220;4.412;2023-07-24T09:39:51;21.44;71.10
5938;DHT22;2994;51.220;4.412;2023-07-24T09:42:27;21.51;70.52
5938;DHT22;2994;51.220;4.412;2023-07-24T09:44:53;21.62;70.86
5938;DHT22;2994;51.220;4.412;2023-07-24T09:47:18;21.64;71.24
5938;DHT22;2994;51.220;4.412;2023-07-24T09:49:44;21.72;71.08
5938;DHT22;2994;51.220;4.412;2023-07-24T09:52:09;21.72;71.27
5938;DHT22;2994;51.220;4.412;2023-07-24T09:54:43;21.72;70.52
5938;DHT22;2994;51.220;4.412;2023-07-24T09:57:13;21.76;70.42
5938;DHT22;2994;51.220;4.412;2023-07-24T09:59:39;21.89;69.54
5938;DHT22;2994;51.220;4.412;2023-07-24T10:02:08;22.03;69.95
5938;DHT22;2994;51.220;4.412;2023-07-24T10:04:36;22.10;69.23
5938;DHT22;2994;51.220;4.412;2023-07-24T10:07:04;22.26;68.91
5938;DHT22;2994;51.220;4.412;2023-07-24T10:09:30;22.48;67.92
5938;DHT22;2994;51.220;4.412;2023-07-24T10:11:56;22.66;67.97
5938;DHT22;2994;51.220;4.412;2023-07-24T10:14:22;22.68;67.30
5938;DHT22;2994;51.220;4.412;2023-07-24T10:16:48;22.69;67.14
5938;DHT22;2994;51.220;4.412;2023-07-24T10:19:16;22.71;65.82
5938;DHT22;2994;51.220;4.412;2023-07-24T10:21:46;22.52;64.09
5938;DHT22;2994;51.220;4.412;2023-07-24T10:24:12;22.38;64.98
5938;DHT22;2994;51.220;4.412;2023-07-24T10:26:37;22.46;65.97
5938;DHT22;2994;51.220;4.412;2023-07-24T10:29:03;22.40;64.82
5938;DHT22;2994;51.220;4.412;2023-07-24T10:31:29;22.36;65.48
5938;DHT22;2994;51.220;4.412;2023-07-24T10:33:55;22.31;66.92
5938;DHT22;2994;51.220;4.412;2023-07-24T10:36:33;22.24;67.33
5938;DHT22;2994;51.220;4.412;2023-07-24T10:38:59;22.21;66.79
5938;DHT22;2994;51.220;4.412;2023-07-24T10:41:36;22.16;66.74
5938;DHT22;2994;51.220;4.412;2023-07-24T10:44:02;22.12;66.40
5938;DHT22;2994;51.220;4.412;2023-07-24T10:46:41;22.04;66.27
5938;DHT22;2994;51.220;4.412;2023-07-24T10:49:09;21.98;66.56
5938;DHT22;2994;51.220;4.412;2023-07-24T10:51:35;22.03;66.90
5938;DHT22;2994;51.220;4.412;2023-07-24T10:54:04;22.02;66.91
5938;DHT22;2994;51.220;4.412;2023-07-24T10:56:29;22.02;67.31
5938;DHT22;2994;51.220;4.412;2023-07-24T10:58:55;22.09;67.46
5938;DHT22;2994;51.220;4.412;2023-07-24T11:01:21;22.21;67.10
5938;DHT22;2994;51.220;4.412;2023-07-24T11:03:47;22.12;67.04
5938;DHT22;2994;51.220;4.412;2023-07-24T11:06:16;22.13;67.94
5938;DHT22;2994;51.220;4.412;2023-07-24T11:08:42;22.27;67.41
5938;DHT22;2994;51.220;4.412;2023-07-24T11:11:08;22.43;67.58
5938;DHT22;2994;51.220;4.412;2023-07-24T11:13:33;22.41;67.43
5938;DHT22;2994;51.220;4.412;2023-07-24T11:16:06;22.44;67.90
5938;DHT22;2994;51.220;4.412;2023-07-24T11:18:32;22.42;68.06
5938;DHT22;2994;51.220;4.412;2023-07-24T11:20:57;22.39;68.07
5938;DHT22;2994;51.220;4.412;2023-07-24T11:23:23;22.32;67.84
5938;DHT22;2994;51.220;4.412;2023-07-24T11:25:53;22.32;67.61
5938;DHT22;2994;51.220;4.412;2023-07-24T11:28:19;22.42;67.55
5938;DHT22;2994;51.220;4.412;2023-07-24T11:30:45;22.49;67.39
5938;DHT22;2994;51.220;4.412;2023-07-24T11:33:12;22.75;66.58
5938;DHT22;2994;51.220;4.412;2023-07-24T11:35:39;22.84;66.54
5938;DHT22;2994;51.220;4.412;2023-07-24T11:38:06;22.80;66.84
5938;DHT22;2994;51.220;4.412;2023-07-24T11:40:37;22.96;66.79
5938;DHT22;2994;51.220;4.412;2023-07-24T11:43:03;23.10;66.56
5938;DHT22;2994;51.220;4.412;2023-07-24T11:45:30;22.98;66.08
5938;DHT22;2994;51.220;4.412;2023-07-24T11:47:55;22.90;66.24
5938;DHT22;2994;51.220;4.412;2023-07-24T11:50:22;22.90;66.49
5938;DHT22;2994;51.220;4.412;2023-07-24T11:52:50;22.92;66.36
5938;DHT22;2994;51.220;4.412;2023-07-24T11:55:18;23.01;66.04
5938;DHT22;2994;51.220;4.412;2023-07-24T11:57:55;23.12;65.64
5938;DHT22;2994;51.220;4.412;2023-07-24T12:00:22;23.13;65.30
5938;DHT22;2994;51.220;4.412;2023-07-24T12:02:47;23.15;65.50
5938;DHT22;2994;51.220;4.412;2023-07-24T12:05:13;23.13;65.77
5938;DHT22;2994;51.220;4.412;2023-07-24T12:07:39;23.10;65.51
5938;DHT22;2994;51.220;4.412;2023-07-24T12:10:06;23.00;65.53
5938;DHT22;2994;51.220;4.412;2023-07-24T12:12:46;23.15;65.51
5938;DHT22;2994;51.220;4.412;2023-07-24T12:15:13;23.21;65.17
5938;DHT22;2994;51.220;4.412;2023-07-24T12:17:39;23.13;64.94
5938;DHT22;2994;51.220;4.412;2023-07-24T12:20:06;23.06;64.92
5938;DHT22;2994;51.220;4.412;2023-07-24T12:22:34;22.99;65.25
5938;DHT22;2994;51.220;4.412;2023-07-24T12:25:00;22.93;62.99
5938;DHT22;2994;51.220;4.412;2023-07-24T12:27:26;22.83;59.52
5938;DHT22;2994;51.220;4.412;2023-07-24T12:29:51;22.71;58.84
5938;DHT22;2994;51.220;4.412;2023-07-24T12:32:17;22.62;58.48
5938;DHT22;2994;51.220;4.412;2023-07-24T12:34:44;22.60;59.29
5938;DHT22;2994;51.220;4.412;2023-07-24T12:37:09;22.48;59.42
5938;DHT22;2994;51.220;4.412;2023-07-24T12:39:34;22.72;58.41
5938;DHT22;2994;51.220;4.412;2023-07-24T12:42:00;22.73;59.26
5938;DHT22;2994;51.220;4.412;2023-07-24T12:44:25;22.93;59.08
5938;DHT22;2994;51.220;4.412;2023-07-24T12:46:51;22.82;58.87
5938;DHT22;2994;51.220;4.412;2023-07-24T12:49:17;23.07;59.22
5938;DHT22;2994;51.220;4.412;2023-07-24T12:51:42;23.26;58.41
5938;DHT22;2994;51.220;4.412;2023-07-24T12:54:08;23.25;58.77
5938;DHT22;2994;51.220;4.412;2023-07-24T12:56:33;23.12;58.88
5938;DHT22;2994;51.220;4.412;2023-07-24T12:58:58;23.13;58.83
5938;DHT22;2994;51.220;4.412;2023-07-24T13:01:24;23.24;58.08
5938;DHT22;2994;51.220;4.412;2023-07-24T13:03:50;22.97;56.69
5938;DHT22;2994;51.220;4.412;2023-07-24T13:06:15;22.90;56.75
5938;DHT22;2994;51.220;4.412;2023-07-24T13:08:41;22.86;57.61
5938;DHT22;2994;51.220;4.412;2023-07-24T13:11:06;22.80;58.12
5938;DHT22;2994;51.220;4.412;2023-07-24T13:13:32;22.88;58.47
5938;DHT22;2994;51.220;4.412;2023-07-24T13:15:57;22.68;58.47
5938;DHT22;2994;51.220;4.412;2023-07-24T13:18:22;22.56;59.17
5938;DHT22;2994;51.220;4.412;2023-07-24T13:20:48;22.20;63.27
5938;DHT22;2994;51.220;4.412;2023-07-24T13:23:13;22.06;64.32
5938;DHT22;2994;51.220;4.412;2023-07-24T13:25:39;22.05;64.66
5938;DHT22;2994;51.220;4.412;2023-07-24T13:28:04;21.97;64.19
5938;DHT22;2994;51.220;4.412;2023-07-24T13:30:29;21.81;64.50
5938;DHT22;2994;51.220;4.412;2023-07-24T13:32:55;21.73;66.10
5938;DHT22;2994;51.220;4.412;2023-07-24T13:35:20;21.65;66.81
5938;DHT22;2994;51.220;4.412;2023-07-24T13:37:46;21.67;67.16
5938;DHT22;2994;51.220;4.412;2023-07-24T13:40:11;21.64;67.61
5938;DHT22;2994;51.220;4.412;2023-07-24T13:42:37;21.57;68.53
5938;DHT22;2994;51.220;4.412;2023-07-24T13:45:02;21.47;67.85
5938;DHT22;2994;51.220;4.412;2023-07-24T13:47:28;21.32;68.44
5938;DHT22;2994;51.220;4.412;2023-07-24T13:49:53;21.19;69.49
5938;DHT22;2994;51.220;4.412;2023-07-24T13:52:19;21.19;69.33
5938;DHT22;2994;51.220;4.412;2023-07-24T13:54:44;21.00;69.81
5938;DHT22;2994;51.220;4.412;2023-07-24T13:57:10;21.08;70.23
5938;DHT22;2994;51.220;4.412;2023-07-24T13:59:36;21.06;70.09
5938;DHT22;2994;51.220;4.412;2023-07-24T14:02:03;20.96;71.28
5938;DHT22;2994;51.220;4.412;2023-07-24T14:04:29;20.99;71.35
5938;DHT22;2994;51.220;4.412;2023-07-24T14:06:54;20.98;71.29
5938;DHT22;2994;51.220;4.412;2023-07-24T14:09:19;21.00;72.27
5938;DHT22;2994;51.220;4.412;2023-07-24T14:11:45;20.89;72.32
5938;DHT22;2994;51.220;4.412;2023-07-24T14:14:10;20.90;72.23
5938;DHT22;2994;51.220;4.412;2023-07-24T14:16:36;21.01;72.14
5938;DHT22;2994;51.220;4.412;2023-07-24T14:19:02;21.04;71.91
5938;DHT22;2994;51.220;4.412;2023-07-24T14:21:27;20.86;72.51
5938;DHT22;2994;51.220;4.412;2023-07-24T14:23:52;21.08;71.40
5938;DHT22;2994;51.220;4.412;2023-07-24T14:26:18;21.22;71.30
5938;DHT22;2994;51.220;4.412;2023-07-24T14:28:43;21.32;71.84
5938;DHT22;2994;51.220;4.412;2023-07-24T14:31:09;21.21;71.44
5938;DHT22;2994;51.220;4.412;2023-07-24T14:33:34;21.35;71.46
5938;DHT22;2994;51.220;4.412;2023-07-24T14:35:59;22.03;70.35
5938;DHT22;2994;51.220;4.412;2023-07-24T14:38:25;22.46;68.57
5938;DHT22;2994;51.220;4.412;2023-07-24T14:40:50;22.95;67.34
5938;DHT22;2994;51.220;4.412;2023-07-24T14:43:16;23.21;67.94
5938;DHT22;2994;51.220;4.412;2023-07-24T14:45:41;23.38;67.33
5938;DHT22;2994;51.220;4.412;2023-07-24T14:48:07;23.38;66.70
5938;DHT22;2994;51.220;4.412;2023-07-24T14:50:37;23.17;66.65
5938;DHT22;2994;51.220;4.412;2023-07-24T14:53:03;23.70;64.43
5938;DHT22;2994;51.220;4.412;2023-07-24T14:55:29;23.66;65.49
5938;DHT22;2994;51.220;4.412;2023-07-24T14:57:54;23.45;66.01
5938;DHT22;2994;51.220;4.412;2023-07-24T15:00:19;23.49;65.71
5938;DHT22;2994;51.220;4.412;2023-07-24T15:02:45;23.35;66.01
5938;DHT22;2994;51.220;4.412;2023-07-24T15:05:10;23.35;66.11
5938;DHT22;2994;51.220;4.412;2023-07-24T15:07:36;23.21;66.49
5938;DHT22;2994;51.220;4.412;2023-07-24T15:10:01;23.05;66.23
5938;DHT22;2994;51.220;4.412;2023-07-24T15:12:27;22.77;67.04
5938;DHT22;2994;51.220;4.412;2023-07-24T15:14:52;22.55;67.52
5938;DHT22;2994;51.220;4.412;2023-07-24T15:17:18;22.55;67.45
5938;DHT22;2994;51.220;4.412;2023-07-24T15:19:44;22.37;68.84
5938;DHT22;2994;51.220;4.412;2023-07-24T15:22:10;21.96;70.28
5938;DHT22;2994;51.220;4.412;2023-07-24T15:24:35;21.89;69.91
5938;DHT22;2994;51.220;4.412;2023-07-24T15:27:01;21.83;69.13
5938;DHT22;2994;51.220;4.412;2023-07-24T15:29:33;21.74;69.30
5938;DHT22;2994;51.220;4.412;2023-07-24T15:31:59;21.58;68.42
5938;DHT22;2994;51.220;4.412;2023-07-24T15:34:24;21.53;68.76
5938;DHT22;2994;51.220;4.412;2023-07-24T15:36:49;21.35;69.34
5938;DHT22;2994;51.220;4.412;2023-07-24T15:39:15;21.33;70.21
5938;DHT22;2994;51.220;4.412;2023-07-24T15:41:40;21.37;69.93
5938;DHT22;2994;51.220;4.412;2023-07-24T15:44:06;21.23;70.21
5938;DHT22;2994;51.220;4.412;2023-07-24T15:46:31;21.39;69.08
5938;DHT22;2994;51.220;4.412;2023-07-24T15:48:57;21.37;69.53
5938;DHT22;2994;51.220;4.412;2023-07-24T15:51:25;21.77;69.65
5938;DHT22;2994;51.220;4.412;2023-07-24T15:53:51;24.11;61.34
5938;DHT22;2994;51.220;4.412;2023-07-24T15:56:16;26.53;55.74
5938;DHT22;2994;51.220;4.412;2023-07-24T15:58:42;25.83;56.49
5938;DHT22;2994;51.220;4.412;2023-07-24T16:01:08;25.54;56.40